Talkeetna, AK

9:12 PM AKDT on July 29, 2014 (GMT -0800)
Talkeetna (PATK) Elev 358 ft | 62.32 °N, 150.09 °W | Change Station

Current weather conditions updated 19 minutes ago

Clear
Clear
73 °F
Feels Like 73 °F
N
12
Wind Variable Wind from NNE

Tomorrow is forecast to be Cooler than today.

Today
High -- | Low -- °F
--% Chance of Precip.
Yesterday
High -- | Low -- °F
Precip. -- in
5:16 AM 10:53 PM
Waxing Crescent, 9% visible
Pressure 29.96 in
Visibility 10.0 miles
Clouds Clear
Dew Point 41 °F
Humidity 31%
Rainfall 0.00 in
Snow Depth 1 in
UV 1 out of 12
Pollen Not available.
Air Quality Not available.
Flu Activity Not available.
METAR PATK 300453Z AUTO 03010KT 10SM CLR 23/05 A2996 RMK AO2 SLP146 T02280050 TSNO

More Conditions Fewer Conditions

Pressure 29.96 in
Visibility 10.0 miles
Clouds Clear
Dew Point 41 °F
Humidity 31%
Rainfall 0.00 in
Snow Depth 1 in
UV 1 out of 12
Pollen Not available.
Air Quality Not available.
Flu Activity Not available.
METAR PATK 300453Z AUTO 03010KT 10SM CLR 23/05 A2996 RMK AO2 SLP146 T02280050 TSNO

More Conditions Fewer Conditions

10-Day Weather Forecast

Almanac

Astronomy

Jul. 29, 2014 Rise Set
Actual Time 5:16 AM AKDT 10:53 PM AKDT
Civil Twilight 4:00 AM AKDT 12:07 AM AKDT
Nautical Twilight Sun does not rise Sun does not rise
Astronomical Twilight Sun does not rise Sun does not rise
Moon 9:15 AM AKDT (7/29) 10:49 PM AKDT (7/29)
Length of Visible Light 20h 07m
Length of Day
17h 36m
Tomorrow will be 5m 30s shorter.
Waxing Crescent, 9% of the Moon is Illuminated
Jul 30
Waxing Crescent
Aug 3
First Quarter
Aug 10
Full
Aug 17
Last Quarter
Aug 25
New

Yesterday's Extremes

State Highs State Lows

Community

WunderPhotos

Upload Photos

1,739,004 photos uploaded!

WunderBlogs® & News

By Dr. Jeff Masters
Director of Meteorology, Weather Underground
By Kari Strenfel
Meteorologist, Weather Underground
By Christopher C. Burt
Weather Historian, Weather Underground
July 29, 2014
July 29, 2014
July 29, 2014

Nearby

Snow Depth

Station Depth Elevation
Susitna Valley High 1 in 375 ft
Point Mackenzie 0 in 200 ft
Indian Pass 1 in 2300 ft
Turnagain Pass 0 in 1880 ft
Grandview 0 in 1100 ft

Earthquake Activity

City Distance Mag. Time & Date
No recent earthquake activity has been reported nearby.
Minimum magnitude displayed is 2.5.

Coastal Water Temperatures

Place Temperature
No Stations Reporting

Nearby Weather Stations

Station Location Temp. Heat Index Dew Point Humidity Wind Precip. Elev Updated Type
AKDOT Parks Highway @ Talkeetna Road MP , Talkeetna, AK 75 °F 77 °F 39 °F 27% NNE  at  10 mph 0.00 in / hr 393 ft 7:50 PM AKDT MADIS

Show More Stations Show Fewer Stations